ADDS METAR Data INFO
IDs: Format: Raw Decoded Include TAF

Data at: 0714 UTC 24 Jun 2018

KEMV 240655Z AUTO 00000KT 7SM SCT065 22/22 A2987 RMK AO2
KEMV 240635Z AUTO 00000KT 7SM CLR 23/22 A2988 RMK AO2
KEMV 240615Z AUTO 00000KT 23/23 A2988 RMK AO2 PWINO
KEMV 240555Z AUTO 00000KT 7SM CLR 23/23 A2988 RMK AO2
KEMV 240535Z AUTO 00000KT 7SM CLR 23/23 A2988 RMK AO2
KEMV 240515Z AUTO 00000KT 23/23 A2989 RMK AO2
KEMV 240455Z AUTO 00000KT 7SM CLR 23/23 A2989 RMK AO2
KEMV 240435Z AUTO 00000KT 7SM CLR 23/23 A2989 RMK AO2
KEMV 240415Z AUTO 00000KT 7SM CLR 23/23 A2988 RMK AO2
KEMV 240355Z AUTO 00000KT 7SM CLR 23/23 A2988 RMK AO2
KEMV 240335Z AUTO 00000KT 7SM SCT110 23/23 A2988 RMK AO2
KEMV 240315Z AUTO 00000KT BKN110 23/23 A2987 RMK AO2 PWINO
KEMV 240255Z AUTO 12003KT BKN110 23/23 A2988 RMK AO2 PWINO
KEMV 240235Z AUTO 12003KT 23/22 A2987 RMK AO2 PWINO
KEMV 240215Z AUTO 00000KT 23/22 A2986 RMK AO2 PWINO
KEMV 240155Z AUTO 00000KT 24/22 A2986 RMK AO2 PWINO
KEMV 240135Z AUTO 00000KT 24/23 A2986 RMK AO2 PWINO
KEMV 240115Z AUTO 00000KT 25/23 A2985 RMK AO2 PWINO
KEMV 240055Z AUTO 00000KT 25/22 A2984 RMK AO2 PWINO
KEMV 240035Z AUTO 00000KT CLR 26/22 A2984 RMK AO2 LTG DSNT E PWINO
KEMV 240015Z AUTO 26003KT CLR 27/22 A2984 RMK AO2 PWINO
KEMV 232355Z AUTO 00000KT CLR 28/21 A2983 RMK AO2 PWINO
KEMV 232335Z AUTO 24004KT 10SM CLR 28/21 A2982 RMK AO2 PWINO
KEMV 232315Z AUTO 23003KT CLR 29/22 A2983 RMK AO2 LTG DSNT E PWINO
KEMV 232255Z AUTO 23004KT CLR 30/22 A2982 RMK AO2 PWINO
KEMV 232235Z AUTO 00000KT CLR 29/24 A2981 RMK AO2 PWINO
KEMV 232215Z AUTO 15003KT 10SM CLR 29/24 A2981 RMK AO2 LTG DSNT E PWINO
KEMV 232155Z AUTO 00000KT SCT046 28/24 A2980 RMK AO2 LTG DSNT E AND SE PWINO
KEMV 232135Z AUTO 14003KT SCT048 SCT065 28/24 A2981 RMK AO2 LTG DSNT E AND SE PWINO
KEMV 232115Z AUTO 12003KT SCT055 28/24 A2981 RMK AO2 PWINO
KEMV 232055Z AUTO 12003KT SCT055 BKN065 28/24 A2981 RMK AO2 PWINO
KEMV 232035Z AUTO 14003KT SCT065 27/23 A2982 RMK AO2 PWINO
KEMV 232015Z AUTO 15006KT SCT049 BKN065 27/23 A2982 RMK AO2 LTG DSNT E PWINO
KEMV 231955Z AUTO 16005KT TS 26/25 A2982 RMK AO2 P0002 LTG DSNT E AND SE
KEMV 231935Z AUTO 14005KT VCTS BKN033 OVC042 27/23 A2983 RMK AO2 P0001 LTG DSNT E THRU S
KEMV 231915Z AUTO 15005KT BKN042 OVC050 27/22 A2981 RMK AO2 PWINO
KEMV 231855Z AUTO 19005KT BKN044 BKN065 OVC110 30/22 A2981 RMK AO2 LTG DSNT NE THRU SE PWINO
KEMV 231835Z AUTO 20009KT BKN040 BKN050 31/23 A2982 RMK AO2 LTG DSNT SE PWINO
KEMV 231815Z AUTO 21007KT SCT040 BKN047 BKN060 30/23 A2981 RMK AO2 LTG DSNT S PWINO
KEMV 231755Z AUTO 19007G16KT SCT041 SCT046 SCT060 30/22 A2983 RMK AO2 PWINO
KEMV 231735Z AUTO 19007KT 150V220 SCT042 SCT050 SCT110 30/22 A2984 RMK AO2 PWINO
KEMV 231715Z AUTO 20009KT SCT040 BKN048 BKN100 30/22 A2985 RMK AO2 PWINO
KEMV 231655Z AUTO 18006KT BKN042 OVC050 29/22 A2985 RMK AO2 PWINO
KEMV 231635Z AUTO 20009KT SCT038 BKN043 BKN049 30/22 A2985 RMK AO2 PWINO
KEMV 231615Z AUTO 17005G08KT SCT040 29/22 A2985 RMK AO2 PWINO
KEMV 231555Z AUTO 17008G15KT 140V210 CLR 29/21 A2985 RMK AO2 PWINO
KEMV 231535Z AUTO 18006KT CLR 29/22 A2985 RMK AO2 PWINO
KEMV 231515Z AUTO 20007G14KT CLR 28/22 A2986 RMK AO2 PWINO
KEMV 231455Z AUTO 21005KT CLR 28/22 A2986 RMK AO2 PWINO
KEMV 231435Z AUTO 19005KT CLR 28/23 A2986 RMK AO2 PWINO
KEMV 231415Z AUTO 18006KT CLR 27/22 A2986 RMK AO2 PWINO
KEMV 231355Z AUTO 19006KT CLR 27/22 A2986 RMK AO2 PWINO
KEMV 231335Z AUTO 19008KT CLR 26/23 A2986 RMK AO2 PWINO
KEMV 231315Z AUTO 18003KT 25/23 A2986 RMK AO2 PWINO
KEMV 231255Z AUTO 25/23 RMK AO2 TSNO PWINO
KEMV 231235Z AUTO 18005KT 24/23 A2986 RMK AO2 PWINO
KEMV 231215Z AUTO 00000KT 23/23 A2985 RMK AO2 PWINO
KEMV 231155Z AUTO 14003KT BKN004 23/23 A2985 RMK AO2 PWINO
KEMV 231135Z AUTO 08003KT OVC004 23/23 A2984 RMK AO2 PWINO
KEMV 231115Z AUTO 00000KT BKN004 BKN009 BKN013 22/22 A2984 RMK AO2 PWINO
KEMV 231055Z AUTO 00000KT 22/22 A2984 RMK AO2 PWINO
KEMV 231035Z AUTO 00000KT 22/22 A2984 RMK AO2 PWINO
KEMV 231015Z AUTO 00000KT 21/21 A2983 RMK AO2 PWINO
KEMV 230950Z AUTO 00000KT 21/21 A2982 RMK AO2 PWINO
KEMV 230935Z AUTO 00000KT 21/21 A2982 RMK AO2 PWINO
KEMV 230915Z AUTO 00000KT 21/21 A2982 RMK AO2 PWINO
KEMV 230855Z AUTO 00000KT 21/21 A2982 RMK AO2 PWINO
KEMV 230835Z AUTO 00000KT 21/21 A2982 RMK AO2 PWINO
KEMV 230815Z AUTO 00000KT 21/21 A2981 RMK AO2 PWINO
KEMV 230755Z AUTO 08003KT 21/21 A2982 RMK AO2 PWINO
KEMV 230735Z AUTO 00000KT 21/21 A2982 RMK AO2 PWINO
KEMV 230715Z AUTO 00000KT 21/21 A2983 RMK AO2 PWINO
KEMV 230655Z AUTO 00000KT 21/21 A2983 RMK AO2 PWINO
KEMV 230635Z AUTO 08004KT 21/21 A2983 RMK AO2 PWINO
KEMV 230615Z AUTO 05004KT 21/21 A2983 RMK AO2 LTG DSNT SE PWINO
KEMV 230555Z AUTO 05003KT 21/21 A2984 RMK AO2 PWINO
KEMV 230535Z AUTO 05003KT 21/21 A2984 RMK AO2 PWINO
KEMV 230515Z AUTO 05003KT 21/21 A2984 RMK AO2 PWINO
KEMV 230455Z AUTO 05003KT 21/21 A2983 RMK AO2 PWINO
KEMV 230435Z AUTO 05003KT 21/21 A2984 RMK AO2 PWINO
KEMV 230415Z AUTO 03003KT 22/22 A2984 RMK AO2 LTG DSNT NE PWINO
KEMV 230355Z AUTO 03003KT 22/22 A2985 RMK AO2 LTG DSNT NE PWINO
KEMV 230335Z AUTO 10003KT 22/22 A2984 RMK AO2 LTG DSNT NE AND SE PWINO
KEMV 230315Z AUTO 10003KT 22/21 A2983 RMK AO2 LTG DSNT NE THRU SE PWINO
KEMV 230255Z AUTO 10004KT TS 22/21 A2981 RMK AO2 P0010 LTG DSNT NE THRU SE
KEMV 230235Z AUTO 12009KT 22/22 A2984 RMK AO2 P0009 LTG DSNT NE THRU S PWINO
KEMV 230215Z AUTO 05008KT 22/22 A2982 RMK AO2 P0009 LTG DSNT S AND SW PWINO
KEMV 230155Z AUTO 06009KT 22/22 A2981 RMK AO2 P0030 LTG DSNT S PWINO
KEMV 230135Z AUTO 27007KT 22/22 A2982 RMK AO2 P0019 LTG DSNT ALQS PWINO
KEMV 230115Z AUTO 32006KT BKN055 BKN070 OVC120 22/22 A2978 RMK AO2 LTG DSNT SW PWINO
KEMV 230055Z AUTO 01006KT 22/21 A2978 RMK AO2 LTG DSNT NE PWINO
KEMV 230035Z AUTO 35006KT 22/21 A2979 RMK AO2 LTG DSNT NE PWINO
KEMV 230015Z AUTO 32004KT 23/22 A2979 RMK AO2 LTG DSNT NE PWINO
KEMV 222355Z AUTO 00000KT 23/22 A2979 RMK AO2 LTG DSNT N AND W PWINO
KEMV 222335Z AUTO 03003KT 23/22 A2979 RMK AO2 LTG DSNT N AND NE PWINO
KEMV 222255Z AUTO 18011G25KT 150V230 TS BKN009 BKN022 OVC085 22/21 A2981 RMK AO2 P0047 LTG DSNT ALQS
KEMV 222235Z AUTO 00000KT VCTS BKN090 28/24 A2976 RMK AO2 LTG DSNT ALQS
KEMV 222215Z AUTO 09003KT SCT038 28/23 A2976 RMK AO2 LTG DSNT SW THRU NW PWINO
KEMV 222155Z AUTO 09005KT SCT036 SCT042 29/23 A2976 RMK AO2 LTG DSNT SW THRU NW PWINO
KEMV 222135Z AUTO 10005KT SCT035 SCT043 SCT050 30/23 A2976 RMK AO2 LTG DSNT SW PWINO
KEMV 222115Z AUTO 10003KT SCT039 SCT045 SCT050 30/23 A2977 RMK AO2 LTG DSNT SW PWINO
KEMV 222055Z AUTO 10005KT SCT037 32/23 A2977 RMK AO2 PWINO
KEMV 222035Z AUTO 00000KT CLR 31/22 A2978 RMK AO2 PWINO
KEMV 222015Z AUTO 15003KT CLR 31/23 A2979 RMK AO2 PWINO
KEMV 221955Z AUTO 14003KT CLR 31/22 A2979 RMK AO2 PWINO
KEMV 221935Z AUTO 10004KT SCT034 SCT050 31/22 A2980 RMK AO2 PWINO
KEMV 221915Z AUTO 14003KT SCT034 SCT050 30/22 A2980 RMK AO2 PWINO